sensor_id;sensor_type;location;lat;lon;timestamp;P1;durP1;ratioP1;P2;durP2;ratioP2
59193;SDS011;44967;48.598;15.650;2023-11-18T00:01:09;3.45;;;2.20;;
59193;SDS011;44967;48.598;15.650;2023-11-18T00:03:35;5.93;;;2.50;;
59193;SDS011;44967;48.598;15.650;2023-11-18T00:06:00;2.45;;;1.90;;
59193;SDS011;44967;48.598;15.650;2023-11-18T00:08:26;5.20;;;2.10;;
59193;SDS011;44967;48.598;15.650;2023-11-18T00:10:52;2.63;;;1.98;;
59193;SDS011;44967;48.598;15.650;2023-11-18T00:13:17;3.33;;;1.98;;
59193;SDS011;44967;48.598;15.650;2023-11-18T00:15:43;2.80;;;1.83;;
59193;SDS011;44967;48.598;15.650;2023-11-18T00:18:11;2.40;;;1.80;;
59193;SDS011;44967;48.598;15.650;2023-11-18T00:20:37;3.13;;;1.63;;
59193;SDS011;44967;48.598;15.650;2023-11-18T00:23:03;3.50;;;1.65;;
59193;SDS011;44967;48.598;15.650;2023-11-18T00:25:32;3.60;;;1.88;;
59193;SDS011;44967;48.598;15.650;2023-11-18T00:27:59;4.30;;;1.70;;
59193;SDS011;44967;48.598;15.650;2023-11-18T00:30:25;2.67;;;2.00;;
59193;SDS011;44967;48.598;15.650;2023-11-18T00:32:50;2.33;;;1.75;;
59193;SDS011;44967;48.598;15.650;2023-11-18T00:35:16;2.05;;;1.63;;
59193;SDS011;44967;48.598;15.650;2023-11-18T00:37:42;2.47;;;1.65;;
59193;SDS011;44967;48.598;15.650;2023-11-18T00:40:08;2.40;;;1.75;;
59193;SDS011;44967;48.598;15.650;2023-11-18T00:42:34;2.95;;;1.83;;
59193;SDS011;44967;48.598;15.650;2023-11-18T00:45:00;2.00;;;1.77;;
59193;SDS011;44967;48.598;15.650;2023-11-18T00:47:25;3.72;;;1.92;;
59193;SDS011;44967;48.598;15.650;2023-11-18T00:49:51;3.70;;;1.85;;
59193;SDS011;44967;48.598;15.650;2023-11-18T00:52:18;2.80;;;1.92;;
59193;SDS011;44967;48.598;15.650;2023-11-18T00:54:44;3.33;;;1.83;;
59193;SDS011;44967;48.598;15.650;2023-11-18T00:57:10;4.90;;;2.90;;
59193;SDS011;44967;48.598;15.650;2023-11-18T00:59:36;3.10;;;1.80;;
59193;SDS011;44967;48.598;15.650;2023-11-18T01:02:02;3.33;;;2.00;;
59193;SDS011;44967;48.598;15.650;2023-11-18T01:04:29;1.95;;;1.83;;
59193;SDS011;44967;48.598;15.650;2023-11-18T01:06:56;6.13;;;2.30;;
59193;SDS011;44967;48.598;15.650;2023-11-18T01:09:23;2.45;;;1.70;;
59193;SDS011;44967;48.598;15.650;2023-11-18T01:11:50;3.35;;;2.03;;
59193;SDS011;44967;48.598;15.650;2023-11-18T01:14:16;2.60;;;1.95;;
59193;SDS011;44967;48.598;15.650;2023-11-18T01:16:43;2.35;;;1.70;;
59193;SDS011;44967;48.598;15.650;2023-11-18T01:19:09;1.70;;;1.60;;
59193;SDS011;44967;48.598;15.650;2023-11-18T01:21:35;5.50;;;2.00;;
59193;SDS011;44967;48.598;15.650;2023-11-18T01:24:02;2.67;;;1.77;;
59193;SDS011;44967;48.598;15.650;2023-11-18T01:26:28;2.55;;;1.80;;
59193;SDS011;44967;48.598;15.650;2023-11-18T01:28:53;2.65;;;1.83;;
59193;SDS011;44967;48.598;15.650;2023-11-18T01:31:21;4.25;;;1.98;;
59193;SDS011;44967;48.598;15.650;2023-11-18T01:33:47;2.45;;;1.90;;
59193;SDS011;44967;48.598;15.650;2023-11-18T01:36:15;3.08;;;1.80;;
59193;SDS011;44967;48.598;15.650;2023-11-18T01:38:41;2.40;;;2.00;;
59193;SDS011;44967;48.598;15.650;2023-11-18T01:41:06;3.90;;;1.77;;
59193;SDS011;44967;48.598;15.650;2023-11-18T01:43:33;2.95;;;2.00;;
59193;SDS011;44967;48.598;15.650;2023-11-18T01:45:59;3.05;;;1.90;;
59193;SDS011;44967;48.598;15.650;2023-11-18T01:48:28;2.05;;;1.83;;
59193;SDS011;44967;48.598;15.650;2023-11-18T01:50:58;3.88;;;2.17;;
59193;SDS011;44967;48.598;15.650;2023-11-18T01:53:25;2.17;;;1.60;;
59193;SDS011;44967;48.598;15.650;2023-11-18T01:55:52;1.88;;;1.63;;
59193;SDS011;44967;48.598;15.650;2023-11-18T01:58:20;2.33;;;1.70;;
59193;SDS011;44967;48.598;15.650;2023-11-18T02:00:48;2.13;;;1.45;;
59193;SDS011;44967;48.598;15.650;2023-11-18T02:03:16;2.63;;;1.92;;
59193;SDS011;44967;48.598;15.650;2023-11-18T02:05:42;1.77;;;1.67;;
59193;SDS011;44967;48.598;15.650;2023-11-18T02:08:09;2.05;;;1.45;;
59193;SDS011;44967;48.598;15.650;2023-11-18T02:11:23;2.45;;;1.52;;
59193;SDS011;44967;48.598;15.650;2023-11-18T02:13:38;2.92;;;1.63;;
59193;SDS011;44967;48.598;15.650;2023-11-18T02:16:07;2.22;;;1.75;;
59193;SDS011;44967;48.598;15.650;2023-11-18T02:18:34;2.30;;;1.45;;
59193;SDS011;44967;48.598;15.650;2023-11-18T02:21:02;2.15;;;1.67;;
59193;SDS011;44967;48.598;15.650;2023-11-18T02:23:29;2.30;;;1.52;;
59193;SDS011;44967;48.598;15.650;2023-11-18T02:25:56;2.10;;;1.83;;
59193;SDS011;44967;48.598;15.650;2023-11-18T02:28:21;1.92;;;1.50;;
59193;SDS011;44967;48.598;15.650;2023-11-18T02:30:47;5.07;;;2.45;;
59193;SDS011;44967;48.598;15.650;2023-11-18T02:33:33;1.98;;;1.52;;
59193;SDS011;44967;48.598;15.650;2023-11-18T02:36:16;1.90;;;1.73;;
59193;SDS011;44967;48.598;15.650;2023-11-18T02:38:51;5.25;;;1.55;;
59193;SDS011;44967;48.598;15.650;2023-11-18T02:41:22;3.55;;;1.60;;
59193;SDS011;44967;48.598;15.650;2023-11-18T02:43:48;3.67;;;2.03;;
59193;SDS011;44967;48.598;15.650;2023-11-18T02:46:15;2.03;;;1.80;;
59193;SDS011;44967;48.598;15.650;2023-11-18T02:48:42;2.20;;;1.70;;
59193;SDS011;44967;48.598;15.650;2023-11-18T02:51:09;1.58;;;1.20;;
59193;SDS011;44967;48.598;15.650;2023-11-18T02:53:37;2.78;;;1.70;;
59193;SDS011;44967;48.598;15.650;2023-11-18T02:56:03;3.05;;;1.80;;
59193;SDS011;44967;48.598;15.650;2023-11-18T02:58:30;2.05;;;1.58;;
59193;SDS011;44967;48.598;15.650;2023-11-18T03:00:55;1.73;;;1.52;;
59193;SDS011;44967;48.598;15.650;2023-11-18T03:03:22;2.75;;;1.83;;
59193;SDS011;44967;48.598;15.650;2023-11-18T03:05:48;1.52;;;1.40;;
59193;SDS011;44967;48.598;15.650;2023-11-18T03:08:15;3.00;;;1.48;;
59193;SDS011;44967;48.598;15.650;2023-11-18T03:10:41;1.55;;;1.30;;
59193;SDS011;44967;48.598;15.650;2023-11-18T03:13:09;2.17;;;1.30;;
59193;SDS011;44967;48.598;15.650;2023-11-18T03:15:37;1.52;;;1.30;;
59193;SDS011;44967;48.598;15.650;2023-11-18T03:18:03;1.42;;;1.33;;
59193;SDS011;44967;48.598;15.650;2023-11-18T03:20:31;2.67;;;1.48;;
59193;SDS011;44967;48.598;15.650;2023-11-18T03:22:59;1.70;;;1.48;;
59193;SDS011;44967;48.598;15.650;2023-11-18T03:25:26;1.52;;;1.40;;
59193;SDS011;44967;48.598;15.650;2023-11-18T03:27:52;2.65;;;1.50;;
59193;SDS011;44967;48.598;15.650;2023-11-18T03:30:19;1.77;;;1.42;;
59193;SDS011;44967;48.598;15.650;2023-11-18T03:32:46;2.15;;;1.35;;
59193;SDS011;44967;48.598;15.650;2023-11-18T03:35:12;1.52;;;1.35;;
59193;SDS011;44967;48.598;15.650;2023-11-18T03:37:38;1.30;;;1.10;;
59193;SDS011;44967;48.598;15.650;2023-11-18T03:40:08;1.45;;;1.30;;
59193;SDS011;44967;48.598;15.650;2023-11-18T03:42:35;1.90;;;1.70;;
59193;SDS011;44967;48.598;15.650;2023-11-18T03:45:02;2.83;;;1.70;;
59193;SDS011;44967;48.598;15.650;2023-11-18T03:47:30;3.05;;;1.60;;
59193;SDS011;44967;48.598;15.650;2023-11-18T03:49:56;2.13;;;1.58;;
59193;SDS011;44967;48.598;15.650;2023-11-18T03:52:23;1.70;;;1.45;;
59193;SDS011;44967;48.598;15.650;2023-11-18T03:54:49;1.35;;;1.20;;
59193;SDS011;44967;48.598;15.650;2023-11-18T03:57:15;1.83;;;1.60;;
59193;SDS011;44967;48.598;15.650;2023-11-18T03:59:40;3.95;;;1.80;;
59193;SDS011;44967;48.598;15.650;2023-11-18T04:02:07;1.83;;;1.58;;
59193;SDS011;44967;48.598;15.650;2023-11-18T04:04:33;1.33;;;1.23;;
59193;SDS011;44967;48.598;15.650;2023-11-18T04:06:59;3.80;;;2.30;;
59193;SDS011;44967;48.598;15.650;2023-11-18T04:09:26;2.08;;;1.55;;
59193;SDS011;44967;48.598;15.650;2023-11-18T04:11:52;3.67;;;1.98;;
59193;SDS011;44967;48.598;15.650;2023-11-18T04:14:18;2.58;;;1.88;;
59193;SDS011;44967;48.598;15.650;2023-11-18T04:16:45;2.13;;;1.77;;
59193;SDS011;44967;48.598;15.650;2023-11-18T04:19:11;1.70;;;1.60;;
59193;SDS011;44967;48.598;15.650;2023-11-18T04:21:37;2.45;;;1.52;;
59193;SDS011;44967;48.598;15.650;2023-11-18T04:24:03;2.40;;;1.80;;
59193;SDS011;44967;48.598;15.650;2023-11-18T04:26:31;1.50;;;1.40;;
59193;SDS011;44967;48.598;15.650;2023-11-18T04:28:57;4.28;;;1.75;;
59193;SDS011;44967;48.598;15.650;2023-11-18T04:31:24;3.03;;;1.30;;
59193;SDS011;44967;48.598;15.650;2023-11-18T04:33:50;1.38;;;1.27;;
59193;SDS011;44967;48.598;15.650;2023-11-18T04:36:16;2.83;;;1.63;;
59193;SDS011;44967;48.598;15.650;2023-11-18T04:38:42;1.77;;;1.23;;
59193;SDS011;44967;48.598;15.650;2023-11-18T04:41:11;4.25;;;1.42;;
59193;SDS011;44967;48.598;15.650;2023-11-18T04:43:37;3.17;;;1.45;;
59193;SDS011;44967;48.598;15.650;2023-11-18T04:46:05;2.10;;;1.48;;
59193;SDS011;44967;48.598;15.650;2023-11-18T04:48:31;1.83;;;1.67;;
59193;SDS011;44967;48.598;15.650;2023-11-18T04:50:58;2.45;;;1.70;;
59193;SDS011;44967;48.598;15.650;2023-11-18T04:53:24;2.05;;;1.50;;
59193;SDS011;44967;48.598;15.650;2023-11-18T04:55:51;2.67;;;1.38;;
59193;SDS011;44967;48.598;15.650;2023-11-18T04:58:17;2.78;;;1.38;;
59193;SDS011;44967;48.598;15.650;2023-11-18T05:00:43;2.85;;;1.50;;
59193;SDS011;44967;48.598;15.650;2023-11-18T05:03:09;3.35;;;1.50;;
59193;SDS011;44967;48.598;15.650;2023-11-18T05:05:37;4.28;;;1.58;;
59193;SDS011;44967;48.598;15.650;2023-11-18T05:08:04;1.92;;;1.73;;
59193;SDS011;44967;48.598;15.650;2023-11-18T05:10:32;1.88;;;1.58;;
59193;SDS011;44967;48.598;15.650;2023-11-18T05:12:58;1.92;;;1.20;;
59193;SDS011;44967;48.598;15.650;2023-11-18T05:15:24;2.42;;;1.77;;
59193;SDS011;44967;48.598;15.650;2023-11-18T05:17:50;1.73;;;1.60;;
59193;SDS011;44967;48.598;15.650;2023-11-18T05:20:20;1.70;;;1.60;;
59193;SDS011;44967;48.598;15.650;2023-11-18T05:22:46;2.03;;;1.88;;
59193;SDS011;44967;48.598;15.650;2023-11-18T05:25:13;2.88;;;1.73;;
59193;SDS011;44967;48.598;15.650;2023-11-18T05:27:39;2.80;;;1.50;;
59193;SDS011;44967;48.598;15.650;2023-11-18T05:30:09;3.80;;;1.70;;
59193;SDS011;44967;48.598;15.650;2023-11-18T05:32:36;3.20;;;2.00;;
59193;SDS011;44967;48.598;15.650;2023-11-18T05:35:03;2.90;;;1.73;;
59193;SDS011;44967;48.598;15.650;2023-11-18T05:37:30;1.85;;;1.58;;
59193;SDS011;44967;48.598;15.650;2023-11-18T05:40:03;3.35;;;2.15;;
59193;SDS011;44967;48.598;15.650;2023-11-18T05:42:33;3.28;;;2.10;;
59193;SDS011;44967;48.598;15.650;2023-11-18T05:45:05;1.73;;;1.52;;
59193;SDS011;44967;48.598;15.650;2023-11-18T05:47:32;2.05;;;1.92;;
59193;SDS011;44967;48.598;15.650;2023-11-18T05:50:02;2.58;;;1.75;;
59193;SDS011;44967;48.598;15.650;2023-11-18T05:52:31;3.13;;;1.80;;
59193;SDS011;44967;48.598;15.650;2023-11-18T05:54:56;2.20;;;1.95;;
59193;SDS011;44967;48.598;15.650;2023-11-18T05:57:23;3.25;;;1.70;;
59193;SDS011;44967;48.598;15.650;2023-11-18T05:59:48;4.07;;;2.45;;
59193;SDS011;44967;48.598;15.650;2023-11-18T06:02:14;2.90;;;1.80;;
59193;SDS011;44967;48.598;15.650;2023-11-18T06:04:44;1.73;;;1.52;;
59193;SDS011;44967;48.598;15.650;2023-11-18T06:07:10;2.42;;;1.80;;
59193;SDS011;44967;48.598;15.650;2023-11-18T06:09:39;1.98;;;1.60;;
59193;SDS011;44967;48.598;15.650;2023-11-18T06:12:07;2.55;;;2.08;;
59193;SDS011;44967;48.598;15.650;2023-11-18T06:14:36;2.47;;;1.52;;
59193;SDS011;44967;48.598;15.650;2023-11-18T06:17:03;2.38;;;1.90;;
59193;SDS011;44967;48.598;15.650;2023-11-18T06:19:29;4.00;;;1.45;;
59193;SDS011;44967;48.598;15.650;2023-11-18T06:21:55;2.42;;;1.75;;
59193;SDS011;44967;48.598;15.650;2023-11-18T06:24:21;1.80;;;1.70;;
59193;SDS011;44967;48.598;15.650;2023-11-18T06:26:47;2.80;;;1.90;;
59193;SDS011;44967;48.598;15.650;2023-11-18T06:29:15;2.95;;;2.13;;
59193;SDS011;44967;48.598;15.650;2023-11-18T06:31:41;2.17;;;1.80;;
59193;SDS011;44967;48.598;15.650;2023-11-18T06:34:08;1.98;;;1.77;;
59193;SDS011;44967;48.598;15.650;2023-11-18T06:36:34;3.97;;;2.13;;
59193;SDS011;44967;48.598;15.650;2023-11-18T06:38:59;2.60;;;1.98;;
59193;SDS011;44967;48.598;15.650;2023-11-18T06:41:25;7.60;;;2.40;;
59193;SDS011;44967;48.598;15.650;2023-11-18T06:43:59;2.63;;;2.17;;
59193;SDS011;44967;48.598;15.650;2023-11-18T06:46:34;3.38;;;2.10;;
59193;SDS011;44967;48.598;15.650;2023-11-18T06:49:02;3.53;;;2.17;;
59193;SDS011;44967;48.598;15.650;2023-11-18T06:51:29;3.55;;;1.98;;
59193;SDS011;44967;48.598;15.650;2023-11-18T06:53:57;2.20;;;2.00;;
59193;SDS011;44967;48.598;15.650;2023-11-18T06:56:24;2.13;;;1.85;;
59193;SDS011;44967;48.598;15.650;2023-11-18T06:58:51;1.95;;;1.73;;
59193;SDS011;44967;48.598;15.650;2023-11-18T07:01:17;2.50;;;2.13;;
59193;SDS011;44967;48.598;15.650;2023-11-18T07:03:46;3.40;;;2.15;;
59193;SDS011;44967;48.598;15.650;2023-11-18T07:06:19;3.33;;;2.47;;
59193;SDS011;44967;48.598;15.650;2023-11-18T07:08:48;4.25;;;2.58;;
59193;SDS011;44967;48.598;15.650;2023-11-18T07:11:15;4.38;;;3.17;;
59193;SDS011;44967;48.598;15.650;2023-11-18T07:13:42;4.43;;;2.50;;
59193;SDS011;44967;48.598;15.650;2023-11-18T07:16:08;5.35;;;2.95;;
59193;SDS011;44967;48.598;15.650;2023-11-18T07:18:35;4.57;;;3.00;;
59193;SDS011;44967;48.598;15.650;2023-11-18T07:21:02;3.55;;;2.33;;
59193;SDS011;44967;48.598;15.650;2023-11-18T07:23:32;3.15;;;2.10;;
59193;SDS011;44967;48.598;15.650;2023-11-18T07:25:58;2.35;;;1.95;;
59193;SDS011;44967;48.598;15.650;2023-11-18T07:28:24;2.35;;;2.03;;
59193;SDS011;44967;48.598;15.650;2023-11-18T07:30:51;3.50;;;1.90;;
59193;SDS011;44967;48.598;15.650;2023-11-18T07:33:17;4.38;;;1.98;;
59193;SDS011;44967;48.598;15.650;2023-11-18T07:35:44;2.85;;;1.98;;
59193;SDS011;44967;48.598;15.650;2023-11-18T07:38:14;2.20;;;2.00;;
59193;SDS011;44967;48.598;15.650;2023-11-18T07:40:41;2.22;;;1.90;;
59193;SDS011;44967;48.598;15.650;2023-11-18T07:43:17;2.10;;;1.90;;
59193;SDS011;44967;48.598;15.650;2023-11-18T07:45:42;2.05;;;1.77;;
59193;SDS011;44967;48.598;15.650;2023-11-18T07:48:09;1.98;;;1.63;;
59193;SDS011;44967;48.598;15.650;2023-11-18T07:50:37;1.90;;;1.70;;
59193;SDS011;44967;48.598;15.650;2023-11-18T07:53:07;2.30;;;2.03;;
59193;SDS011;44967;48.598;15.650;2023-11-18T07:55:33;2.10;;;1.88;;
59193;SDS011;44967;48.598;15.650;2023-11-18T07:58:03;3.42;;;1.98;;
59193;SDS011;44967;48.598;15.650;2023-11-18T08:00:36;1.40;;;1.27;;
59193;SDS011;44967;48.598;15.650;2023-11-18T08:03:06;2.47;;;1.75;;
59193;SDS011;44967;48.598;15.650;2023-11-18T08:05:40;2.45;;;1.75;;
59193;SDS011;44967;48.598;15.650;2023-11-18T08:08:09;14.57;;;2.33;;
59193;SDS011;44967;48.598;15.650;2023-11-18T08:10:36;4.70;;;2.03;;
59193;SDS011;44967;48.598;15.650;2023-11-18T08:13:06;2.88;;;1.83;;
59193;SDS011;44967;48.598;15.650;2023-11-18T08:15:33;3.45;;;2.42;;
59193;SDS011;44967;48.598;15.650;2023-11-18T08:18:00;3.70;;;2.05;;
59193;SDS011;44967;48.598;15.650;2023-11-18T08:20:26;2.40;;;1.98;;
59193;SDS011;44967;48.598;15.650;2023-11-18T08:22:52;3.35;;;2.10;;
59193;SDS011;44967;48.598;15.650;2023-11-18T08:25:18;2.42;;;1.70;;
59193;SDS011;44967;48.598;15.650;2023-11-18T08:27:44;2.95;;;2.00;;
59193;SDS011;44967;48.598;15.650;2023-11-18T08:30:13;2.42;;;1.83;;
59193;SDS011;44967;48.598;15.650;2023-11-18T08:32:41;2.75;;;1.90;;
59193;SDS011;44967;48.598;15.650;2023-11-18T08:35:10;2.38;;;1.85;;
59193;SDS011;44967;48.598;15.650;2023-11-18T08:37:41;3.03;;;2.00;;
59193;SDS011;44967;48.598;15.650;2023-11-18T08:40:13;2.83;;;1.80;;
59193;SDS011;44967;48.598;15.650;2023-11-18T08:42:50;3.05;;;2.22;;
59193;SDS011;44967;48.598;15.650;2023-11-18T08:45:17;2.38;;;2.15;;
59193;SDS011;44967;48.598;15.650;2023-11-18T08:47:47;3.47;;;2.45;;
59193;SDS011;44967;48.598;15.650;2023-11-18T08:50:16;2.35;;;1.88;;
59193;SDS011;44967;48.598;15.650;2023-11-18T08:52:43;2.50;;;2.10;;
59193;SDS011;44967;48.598;15.650;2023-11-18T08:55:12;3.90;;;2.13;;
59193;SDS011;44967;48.598;15.650;2023-11-18T08:57:46;3.13;;;2.45;;
59193;SDS011;44967;48.598;15.650;2023-11-18T09:03:12;5.75;;;3.05;;
59193;SDS011;44967;48.598;15.650;2023-11-18T09:05:53;2.55;;;2.08;;
59193;SDS011;44967;48.598;15.650;2023-11-18T09:11:04;2.50;;;2.20;;
59193;SDS011;44967;48.598;15.650;2023-11-18T09:13:32;3.35;;;1.98;;
59193;SDS011;44967;48.598;15.650;2023-11-18T09:16:06;2.67;;;2.10;;
59193;SDS011;44967;48.598;15.650;2023-11-18T09:18:36;2.20;;;2.00;;
59193;SDS011;44967;48.598;15.650;2023-11-18T09:21:04;1.77;;;1.67;;
59193;SDS011;44967;48.598;15.650;2023-11-18T09:23:32;2.33;;;1.75;;
59193;SDS011;44967;48.598;15.650;2023-11-18T09:26:03;2.50;;;1.90;;
59193;SDS011;44967;48.598;15.650;2023-11-18T09:28:35;2.22;;;2.03;;
59193;SDS011;44967;48.598;15.650;2023-11-18T09:31:03;2.67;;;1.80;;
59193;SDS011;44967;48.598;15.650;2023-11-18T09:33:30;2.60;;;2.05;;
59193;SDS011;44967;48.598;15.650;2023-11-18T09:36:02;2.40;;;2.20;;
59193;SDS011;44967;48.598;15.650;2023-11-18T09:38:28;3.25;;;2.20;;
59193;SDS011;44967;48.598;15.650;2023-11-18T09:40:55;3.08;;;2.13;;
59193;SDS011;44967;48.598;15.650;2023-11-18T09:43:23;3.72;;;2.28;;
59193;SDS011;44967;48.598;15.650;2023-11-18T09:45:54;6.63;;;4.03;;
59193;SDS011;44967;48.598;15.650;2023-11-18T09:48:22;3.95;;;2.42;;
59193;SDS011;44967;48.598;15.650;2023-11-18T09:50:51;2.40;;;2.20;;
59193;SDS011;44967;48.598;15.650;2023-11-18T09:53:17;3.28;;;2.03;;
59193;SDS011;44967;48.598;15.650;2023-11-18T09:55:51;2.35;;;1.88;;
59193;SDS011;44967;48.598;15.650;2023-11-18T09:58:40;2.78;;;2.00;;
59193;SDS011;44967;48.598;15.650;2023-11-18T10:01:20;2.83;;;2.43;;
59193;SDS011;44967;48.598;15.650;2023-11-18T10:03:48;3.70;;;2.47;;
59193;SDS011;44967;48.598;15.650;2023-11-18T10:06:17;4.25;;;2.30;;
59193;SDS011;44967;48.598;15.650;2023-11-18T10:08:47;3.13;;;2.63;;
59193;SDS011;44967;48.598;15.650;2023-11-18T10:11:18;3.30;;;2.15;;
59193;SDS011;44967;48.598;15.650;2023-11-18T10:13:48;2.72;;;2.47;;
59193;SDS011;44967;48.598;15.650;2023-11-18T10:16:14;3.22;;;2.40;;
59193;SDS011;44967;48.598;15.650;2023-11-18T10:18:40;2.95;;;2.65;;
59193;SDS011;44967;48.598;15.650;2023-11-18T10:21:14;3.03;;;2.47;;
59193;SDS011;44967;48.598;15.650;2023-11-18T10:23:59;2.67;;;2.45;;
59193;SDS011;44967;48.598;15.650;2023-11-18T10:26:26;5.55;;;2.63;;
59193;SDS011;44967;48.598;15.650;2023-11-18T10:28:54;3.35;;;2.42;;
59193;SDS011;44967;48.598;15.650;2023-11-18T10:31:20;4.13;;;2.60;;
59193;SDS011;44967;48.598;15.650;2023-11-18T10:33:49;4.78;;;2.97;;
59193;SDS011;44967;48.598;15.650;2023-11-18T10:36:17;3.05;;;2.75;;
59193;SDS011;44967;48.598;15.650;2023-11-18T10:38:48;3.75;;;3.10;;
59193;SDS011;44967;48.598;15.650;2023-11-18T10:41:19;3.72;;;2.65;;
59193;SDS011;44967;48.598;15.650;2023-11-18T10:43:45;4.63;;;3.33;;
59193;SDS011;44967;48.598;15.650;2023-11-18T10:46:13;3.13;;;2.83;;
59193;SDS011;44967;48.598;15.650;2023-11-18T10:51:13;3.72;;;2.72;;
59193;SDS011;44967;48.598;15.650;2023-11-18T10:53:46;5.35;;;3.08;;
59193;SDS011;44967;48.598;15.650;2023-11-18T10:56:24;5.15;;;2.75;;
59193;SDS011;44967;48.598;15.650;2023-11-18T10:59:06;3.20;;;2.28;;
59193;SDS011;44967;48.598;15.650;2023-11-18T11:01:33;3.78;;;2.40;;
59193;SDS011;44967;48.598;15.650;2023-11-18T11:04:05;2.78;;;2.50;;
59193;SDS011;44967;48.598;15.650;2023-11-18T11:06:31;4.22;;;2.90;;
59193;SDS011;44967;48.598;15.650;2023-11-18T11:08:58;4.72;;;2.92;;
59193;SDS011;44967;48.598;15.650;2023-11-18T11:11:24;2.88;;;2.40;;
59193;SDS011;44967;48.598;15.650;2023-11-18T11:13:56;3.50;;;3.03;;
59193;SDS011;44967;48.598;15.650;2023-11-18T11:16:23;2.50;;;2.17;;
59193;SDS011;44967;48.598;15.650;2023-11-18T11:19:01;3.60;;;2.60;;
59193;SDS011;44967;48.598;15.650;2023-11-18T11:21:43;2.67;;;2.47;;
59193;SDS011;44967;48.598;15.650;2023-11-18T11:24:37;6.68;;;2.58;;
59193;SDS011;44967;48.598;15.650;2023-11-18T11:27:21;5.95;;;2.80;;
59193;SDS011;44967;48.598;15.650;2023-11-18T11:30:08;3.30;;;2.67;;
59193;SDS011;44967;48.598;15.650;2023-11-18T11:32:53;3.40;;;2.70;;
59193;SDS011;44967;48.598;15.650;2023-11-18T11:35:36;4.15;;;2.50;;
59193;SDS011;44967;48.598;15.650;2023-11-18T11:38:06;3.00;;;2.70;;
59193;SDS011;44967;48.598;15.650;2023-11-18T11:40:38;2.13;;;1.98;;
59193;SDS011;44967;48.598;15.650;2023-11-18T11:43:07;4.50;;;2.90;;
59193;SDS011;44967;48.598;15.650;2023-11-18T11:45:36;2.83;;;2.42;;
59193;SDS011;44967;48.598;15.650;2023-11-18T11:48:04;2.78;;;2.47;;
59193;SDS011;44967;48.598;15.650;2023-11-18T11:50:50;5.60;;;3.00;;
59193;SDS011;44967;48.598;15.650;2023-11-18T11:53:23;2.97;;;2.63;;
59193;SDS011;44967;48.598;15.650;2023-11-18T11:55:52;3.47;;;2.97;;
59193;SDS011;44967;48.598;15.650;2023-11-18T11:58:32;3.92;;;2.17;;
59193;SDS011;44967;48.598;15.650;2023-11-18T12:01:14;2.97;;;2.63;;
59193;SDS011;44967;48.598;15.650;2023-11-18T12:03:56;3.75;;;2.67;;
59193;SDS011;44967;48.598;15.650;2023-11-18T12:06:23;2.67;;;2.42;;
59193;SDS011;44967;48.598;15.650;2023-11-18T12:08:53;4.75;;;2.58;;
59193;SDS011;44967;48.598;15.650;2023-11-18T12:11:20;3.08;;;2.40;;
59193;SDS011;44967;48.598;15.650;2023-11-18T12:14:04;3.33;;;2.60;;
59193;SDS011;44967;48.598;15.650;2023-11-18T12:17:01;5.30;;;3.45;;
59193;SDS011;44967;48.598;15.650;2023-11-18T12:19:46;2.75;;;2.55;;
59193;SDS011;44967;48.598;15.650;2023-11-18T12:22:17;3.28;;;2.70;;
59193;SDS011;44967;48.598;15.650;2023-11-18T12:35:27;3.70;;;2.60;;
59193;SDS011;44967;48.598;15.650;2023-11-18T12:41:22;5.25;;;2.58;;
59193;SDS011;44967;48.598;15.650;2023-11-18T12:49:23;5.25;;;3.08;;
59193;SDS011;44967;48.598;15.650;2023-11-18T12:51:53;3.08;;;2.70;;
59193;SDS011;44967;48.598;15.650;2023-11-18T12:54:25;2.97;;;2.28;;
59193;SDS011;44967;48.598;15.650;2023-11-18T12:56:53;3.35;;;2.63;;
59193;SDS011;44967;48.598;15.650;2023-11-18T12:59:21;3.45;;;3.03;;
59193;SDS011;44967;48.598;15.650;2023-11-18T13:01:47;2.95;;;2.47;;
59193;SDS011;44967;48.598;15.650;2023-11-18T13:04:18;3.15;;;2.30;;
59193;SDS011;44967;48.598;15.650;2023-11-18T13:06:48;4.20;;;2.05;;
59193;SDS011;44967;48.598;15.650;2023-11-18T13:09:14;8.43;;;2.63;;
59193;SDS011;44967;48.598;15.650;2023-11-18T13:11:59;3.28;;;2.40;;
59193;SDS011;44967;48.598;15.650;2023-11-18T13:14:30;3.80;;;2.33;;
59193;SDS011;44967;48.598;15.650;2023-11-18T13:17:02;2.17;;;1.85;;
59193;SDS011;44967;48.598;15.650;2023-11-18T13:19:32;2.38;;;2.00;;
59193;SDS011;44967;48.598;15.650;2023-11-18T13:22:02;4.05;;;2.13;;
59193;SDS011;44967;48.598;15.650;2023-11-18T13:24:39;2.10;;;1.90;;
59193;SDS011;44967;48.598;15.650;2023-11-18T13:27:06;2.53;;;2.08;;
59193;SDS011;44967;48.598;15.650;2023-11-18T13:29:38;3.63;;;2.30;;
59193;SDS011;44967;48.598;15.650;2023-11-18T13:32:08;2.28;;;1.92;;
59193;SDS011;44967;48.598;15.650;2023-11-18T13:34:35;2.30;;;2.10;;
59193;SDS011;44967;48.598;15.650;2023-11-18T13:37:03;1.90;;;1.80;;
59193;SDS011;44967;48.598;15.650;2023-11-18T13:39:31;2.65;;;2.17;;
59193;SDS011;44967;48.598;15.650;2023-11-18T13:41:58;2.65;;;2.05;;
59193;SDS011;44967;48.598;15.650;2023-11-18T13:44:48;2.10;;;1.90;;
59193;SDS011;44967;48.598;15.650;2023-11-18T13:47:19;2.17;;;1.98;;
59193;SDS011;44967;48.598;15.650;2023-11-18T13:49:48;2.40;;;2.10;;
59193;SDS011;44967;48.598;15.650;2023-11-18T13:52:15;3.60;;;2.17;;
59193;SDS011;44967;48.598;15.650;2023-11-18T13:54:43;2.53;;;2.10;;
59193;SDS011;44967;48.598;15.650;2023-11-18T13:57:10;4.13;;;2.67;;
59193;SDS011;44967;48.598;15.650;2023-11-18T13:59:39;2.63;;;2.35;;
59193;SDS011;44967;48.598;15.650;2023-11-18T14:02:09;2.60;;;1.80;;
59193;SDS011;44967;48.598;15.650;2023-11-18T14:04:35;2.22;;;2.03;;
59193;SDS011;44967;48.598;15.650;2023-11-18T14:07:02;2.10;;;1.92;;
59193;SDS011;44967;48.598;15.650;2023-11-18T14:09:33;2.40;;;2.10;;
59193;SDS011;44967;48.598;15.650;2023-11-18T14:12:06;3.13;;;2.15;;
59193;SDS011;44967;48.598;15.650;2023-11-18T14:14:33;2.40;;;2.20;;
59193;SDS011;44967;48.598;15.650;2023-11-18T14:16:59;2.65;;;2.03;;
59193;SDS011;44967;48.598;15.650;2023-11-18T14:19:25;2.90;;;2.45;;
59193;SDS011;44967;48.598;15.650;2023-11-18T14:21:53;2.20;;;2.00;;
59193;SDS011;44967;48.598;15.650;2023-11-18T14:24:19;2.35;;;2.08;;
59193;SDS011;44967;48.598;15.650;2023-11-18T14:26:45;2.78;;;2.33;;
59193;SDS011;44967;48.598;15.650;2023-11-18T14:29:11;2.63;;;2.20;;
59193;SDS011;44967;48.598;15.650;2023-11-18T14:31:37;3.80;;;1.85;;
59193;SDS011;44967;48.598;15.650;2023-11-18T14:34:04;2.03;;;1.83;;
59193;SDS011;44967;48.598;15.650;2023-11-18T14:36:30;2.30;;;1.90;;
59193;SDS011;44967;48.598;15.650;2023-11-18T14:38:56;2.08;;;1.88;;
59193;SDS011;44967;48.598;15.650;2023-11-18T14:41:23;2.20;;;2.00;;
59193;SDS011;44967;48.598;15.650;2023-11-18T14:43:52;2.45;;;2.25;;
59193;SDS011;44967;48.598;15.650;2023-11-18T14:46:18;3.50;;;2.45;;
59193;SDS011;44967;48.598;15.650;2023-11-18T14:48:44;3.72;;;2.55;;
59193;SDS011;44967;48.598;15.650;2023-11-18T14:51:10;2.55;;;2.35;;
59193;SDS011;44967;48.598;15.650;2023-11-18T14:53:36;2.65;;;2.30;;
59193;SDS011;44967;48.598;15.650;2023-11-18T14:56:05;3.13;;;2.40;;
59193;SDS011;44967;48.598;15.650;2023-11-18T14:58:32;3.25;;;2.03;;
59193;SDS011;44967;48.598;15.650;2023-11-18T15:00:58;2.20;;;2.00;;
59193;SDS011;44967;48.598;15.650;2023-11-18T15:03:25;3.47;;;2.10;;
59193;SDS011;44967;48.598;15.650;2023-11-18T15:05:51;2.47;;;1.88;;
59193;SDS011;44967;48.598;15.650;2023-11-18T15:08:17;2.42;;;1.70;;
59193;SDS011;44967;48.598;15.650;2023-11-18T15:10:43;2.35;;;1.88;;